Norcatur, KS (67653)

1:27 PM CDT on April 26, 2017 (GMT -0500)
MCLNK1 | | Change Station
Active Advisory: Frost Advisory

Elev 2348 ft 39.77 °N, 100.10 °W | Updated 43 minutes ago

Partly Cloudy
Partly Cloudy
46.0 °F
Feels Like 46.0 °F
N
-
Wind Variable Wind from North

Today
High -- | Low -- °F
--% Chance of Precip.
Yesterday
High -- | Low -- °F
Precip. -- in
Pressure 29.79 in
Visibility 10.0 miles
Clouds Clear
Dew Point Not available.
Humidity Not available.
Rainfall 0.00 in
Snow Depth Not available.
6:47 AM 8:30 PM
New Moon, 0% visible
METAR KMCK 261753Z AUTO 35013G21KT 10SM CLR 09/M01 A2976 RMK AO2 PK WND 34027/1700 SLP086 T00891006 10094 20006 58010
Pressure 29.79 in
Visibility 10.0 miles
Clouds Clear
Dew Point Not available.
Humidity Not available.
Rainfall 0.00 in
Snow Depth Not available.
6:47 AM 8:30 PM
New Moon, 0% visible
METAR KMCK 261753Z AUTO 35013G21KT 10SM CLR 09/M01 A2976 RMK AO2 PK WND 34027/1700 SLP086 T00891006 10094 20006 58010

Get Your Daily Forecast Email!

Thanks for signing up!

Be on the lookout for a verification email in your inbox.

You'll start receiving severe weather alerts in your inbox..

×

10-Day Weather Forecast

Almanac

Astronomy

Apr. 26, 2017 Rise Set
Actual Time
Civil Twilight
Nautical Twilight
Astronomical Twilight
Moon
Length of Visible Light
Length of Day
Tomorrow will be .
, % of the Moon is Illuminated

Today's Extremes

State Highs State Lows

Community

WunderPhotos

WunderBlog® & News

Nearby

Air Quality

  Air Quality AQ Index Pollutant
Not available.

Snow Depth

Station Depth Elevation

Earthquake Activity

City Distance Mag. Time & Date
Minimum magnitude displayed is 2.5.

Coastal Water Temperatures

Place Temperature

Stations

Nearby Weather Stations

Station Location Temp. Windchill Dew Point Humidity Wind Precip. Elev Updated Type
                   

Watches & Warnings

Frost Advisory
Issued: 4:19 AM CDT Apr. 26, 2017 – National Weather Service

... Frost advisory in effect from 1 am to 9 am CDT Thursday...

The National Weather Service in Goodland has issued a frost
advisory... which is in effect from 1 am to 9 am CDT Thursday.

* Temperatures... low temperatures between 33 and 36 degrees.

* Timing/duration... after midnight tonight through early Thursday
morning.

Precautionary/preparedness actions...

A frost advisory is issued when frost is expected to develop
during the growing season. Those with agricultural interests in
the advisory area should consider protecting tender vegetation.
Also... potted plants normally left outdoors should be covered or
brought inside away from the cold.